createdAt,value
2023-02-04T00:00:21.441Z,68.93
2023-02-04T00:02:48.825Z,65.50
2023-02-04T00:05:17.823Z,72.60
2023-02-04T00:07:44.909Z,78.33
2023-02-04T00:10:11.905Z,70.27
2023-02-04T00:12:38.931Z,65.80
2023-02-04T00:15:06.363Z,60.83
2023-02-04T00:17:33.306Z,72.40
2023-02-04T00:20:00.282Z,57.87
2023-02-04T00:22:29.038Z,59.87
2023-02-04T00:24:56.532Z,63.30
2023-02-04T00:27:23.450Z,60.20
2023-02-04T00:29:50.551Z,63.13
2023-02-04T00:32:17.589Z,56.33
2023-02-04T00:34:44.698Z,62.37
2023-02-04T00:37:11.693Z,51.77
2023-02-04T00:39:38.671Z,58.00
2023-02-04T00:42:06.867Z,56.13
2023-02-04T00:44:36.665Z,54.27
2023-02-04T00:47:04.231Z,50.03
2023-02-04T00:49:31.272Z,46.50
2023-02-04T00:51:58.223Z,47.37
2023-02-04T00:54:26.400Z,45.70
2023-02-04T00:56:53.493Z,52.70
2023-02-04T00:59:20.469Z,47.50
2023-02-04T01:01:47.453Z,43.20
2023-02-04T01:04:15.112Z,53.30
2023-02-04T01:06:42.184Z,49.83
2023-02-04T01:09:10.340Z,44.17
2023-02-04T01:11:37.683Z,52.97
2023-02-04T01:14:04.808Z,43.17
2023-02-04T01:16:32.366Z,41.03
2023-02-04T01:19:00.534Z,50.13
2023-02-04T01:21:27.730Z,53.20
2023-02-04T01:23:54.836Z,48.50
2023-02-04T01:26:22.588Z,48.63
2023-02-04T01:28:50.218Z,46.80
2023-02-04T01:31:17.596Z,45.67
2023-02-04T01:33:44.687Z,46.63
2023-02-04T01:36:12.341Z,40.73
2023-02-04T01:38:40.215Z,38.70
2023-02-04T01:41:07.497Z,44.90
2023-02-04T01:43:34.761Z,42.97
2023-02-04T01:46:02.836Z,40.80
2023-02-04T01:48:30.564Z,46.97
2023-02-04T01:51:04.584Z,44.70
2023-02-04T01:53:32.880Z,46.03
2023-02-04T01:56:00.530Z,45.23
2023-02-04T01:58:31.729Z,46.10
2023-02-04T02:00:58.765Z,45.90
2023-02-04T02:03:26.021Z,43.87
2023-02-04T02:05:55.685Z,48.33
2023-02-04T02:08:26.045Z,45.03
2023-02-04T02:10:52.996Z,45.83
2023-02-04T02:13:20.374Z,39.37
2023-02-04T02:15:48.168Z,37.03
2023-02-04T02:18:16.344Z,41.33
2023-02-04T02:20:45.366Z,35.83
2023-02-04T02:23:22.543Z,48.87
2023-02-04T02:25:50.432Z,41.67
2023-02-04T02:28:20.441Z,43.77
2023-02-04T02:30:49.675Z,41.07
2023-02-04T02:33:20.186Z,39.03
2023-02-04T02:35:50.755Z,42.77
2023-02-04T02:38:19.378Z,41.17
2023-02-04T02:40:47.317Z,41.53
2023-02-04T02:43:17.746Z,38.47
2023-02-04T02:45:45.488Z,41.40
2023-02-04T02:48:13.116Z,41.83
2023-02-04T02:50:41.832Z,40.33
2023-02-04T02:53:19.982Z,38.77
2023-02-04T02:55:48.159Z,46.87
2023-02-04T02:58:29.645Z,37.30
2023-02-04T03:00:57.483Z,37.83
2023-02-04T03:03:31.513Z,40.33
2023-02-04T03:06:04.814Z,41.10
2023-02-04T03:08:31.800Z,39.03
2023-02-04T03:10:58.805Z,39.47
2023-02-04T03:13:26.261Z,38.47
2023-02-04T03:15:54.028Z,36.03
2023-02-04T03:18:21.833Z,36.87
2023-02-04T03:20:51.397Z,39.00
2023-02-04T03:23:20.166Z,40.67
2023-02-04T03:25:47.440Z,35.60
2023-02-04T03:28:14.478Z,40.37
2023-02-04T03:30:41.905Z,37.93
2023-02-04T03:33:09.036Z,36.83
2023-02-04T03:35:36.206Z,35.47
2023-02-04T03:38:03.112Z,36.47
2023-02-04T03:40:30.549Z,37.40
2023-02-04T03:42:57.721Z,40.33
2023-02-04T03:45:25.039Z,35.07
2023-02-04T03:47:52.989Z,37.50
2023-02-04T03:50:20.065Z,33.57
2023-02-04T03:52:49.000Z,39.57
2023-02-04T03:55:16.160Z,30.73
2023-02-04T03:57:43.066Z,31.00
2023-02-04T04:00:11.283Z,38.60
2023-02-04T04:02:41.410Z,34.70
2023-02-04T04:05:10.269Z,33.30
2023-02-04T04:07:37.248Z,31.13
2023-02-04T04:10:04.759Z,30.30
2023-02-04T04:12:31.696Z,25.83
2023-02-04T04:14:59.801Z,33.63
2023-02-04T04:17:26.753Z,28.73
2023-02-04T04:19:53.654Z,29.30
2023-02-04T04:22:20.751Z,34.57
2023-02-04T04:24:47.710Z,33.77
2023-02-04T04:27:14.795Z,25.77
2023-02-04T04:29:41.760Z,31.80
2023-02-04T04:32:09.893Z,25.20
2023-02-04T04:34:37.042Z,31.47
2023-02-04T04:37:04.026Z,26.07
2023-02-04T04:39:30.958Z,26.23
2023-02-04T04:41:58.043Z,28.90
2023-02-04T04:44:24.954Z,29.67
2023-02-04T04:46:51.962Z,28.60
2023-02-04T04:49:19.022Z,27.07
2023-02-04T04:51:45.985Z,29.73
2023-02-04T04:54:12.971Z,24.93
2023-02-04T04:56:39.918Z,26.27
2023-02-04T04:59:06.947Z,27.90
2023-02-04T05:01:34.284Z,26.07
2023-02-04T05:04:01.335Z,28.77
2023-02-04T05:06:28.338Z,26.03
2023-02-04T05:08:55.264Z,21.77
2023-02-04T05:11:22.335Z,29.43
2023-02-04T05:13:49.336Z,24.90
2023-02-04T05:16:17.385Z,30.30
2023-02-04T05:18:44.801Z,28.60
2023-02-04T05:21:11.971Z,30.63
2023-02-04T05:23:39.027Z,27.47
2023-02-04T05:26:06.055Z,28.80
2023-02-04T05:28:32.998Z,28.50
2023-02-04T05:31:00.116Z,28.37
2023-02-04T05:33:27.213Z,27.50
2023-02-04T05:35:54.182Z,25.87
2023-02-04T05:38:21.143Z,20.20
2023-02-04T05:40:48.108Z,22.57
2023-02-04T05:43:15.174Z,30.87
2023-02-04T05:45:42.120Z,25.27
2023-02-04T05:48:09.140Z,25.53
2023-02-04T05:50:36.092Z,21.37
2023-02-04T05:53:09.508Z,25.97
2023-02-04T05:55:36.674Z,27.00
2023-02-04T05:58:03.736Z,27.77
2023-02-04T06:00:30.954Z,31.27
2023-02-04T06:02:58.188Z,28.77
2023-02-04T06:05:25.194Z,40.10
2023-02-04T06:07:52.287Z,30.17
2023-02-04T06:10:21.230Z,29.07
2023-02-04T06:12:48.814Z,26.23
2023-02-04T06:15:16.203Z,24.90
2023-02-04T06:17:43.146Z,22.90
2023-02-04T06:20:13.473Z,22.67
2023-02-04T06:22:40.648Z,27.27
2023-02-04T06:25:08.066Z,24.03
2023-02-04T06:27:35.075Z,28.20
2023-02-04T06:30:02.053Z,25.33
2023-02-04T06:32:29.019Z,29.83
2023-02-04T06:34:56.201Z,26.90
2023-02-04T06:37:24.422Z,26.57
2023-02-04T06:39:51.973Z,26.70
2023-02-04T06:42:18.987Z,27.83
2023-02-04T06:44:46.012Z,22.20
2023-02-04T06:47:12.970Z,24.87
2023-02-04T06:49:39.981Z,27.20
2023-02-04T06:52:06.952Z,28.07
2023-02-04T06:54:34.120Z,30.97
2023-02-04T06:57:06.686Z,31.27
2023-02-04T06:59:35.806Z,31.03
2023-02-04T07:02:03.890Z,27.33
2023-02-04T07:04:30.995Z,32.83
2023-02-04T07:06:57.970Z,38.60
2023-02-04T07:09:25.424Z,36.33
2023-02-04T07:11:52.351Z,41.13
2023-02-04T07:14:19.289Z,37.10
2023-02-04T07:16:46.413Z,36.73
2023-02-04T07:19:13.564Z,38.33
2023-02-04T07:21:40.593Z,45.30
2023-02-04T07:24:07.760Z,53.00
2023-02-04T07:26:34.768Z,53.03
2023-02-04T07:29:01.716Z,58.83
2023-02-04T07:31:28.822Z,58.13
2023-02-04T07:33:55.899Z,55.43
2023-02-04T07:36:23.101Z,54.30
2023-02-04T07:38:50.052Z,55.87
2023-02-04T07:41:17.045Z,60.30
2023-02-04T07:43:44.252Z,61.13
2023-02-04T07:46:11.272Z,57.07
2023-02-04T07:48:38.291Z,59.67
2023-02-04T07:51:05.386Z,57.23
2023-02-04T07:53:32.421Z,62.37
2023-02-04T07:55:59.364Z,59.27
2023-02-04T07:58:26.354Z,56.00
2023-02-04T08:00:53.345Z,60.03
2023-02-04T08:03:20.324Z,56.20
2023-02-04T08:05:47.304Z,66.83
2023-02-04T08:08:15.309Z,64.90
2023-02-04T08:10:42.565Z,66.97
2023-02-04T08:13:09.564Z,67.70
2023-02-04T08:15:36.663Z,63.70
2023-02-04T08:18:04.473Z,83.77
2023-02-04T08:20:31.815Z,75.53
2023-02-04T08:22:59.005Z,79.23
2023-02-04T08:25:26.567Z,88.63
2023-02-04T08:27:53.613Z,92.27
2023-02-04T08:30:20.622Z,102.10
2023-02-04T08:32:47.623Z,94.90
2023-02-04T08:35:14.925Z,114.50
2023-02-04T08:37:41.870Z,113.87
2023-02-04T08:40:09.356Z,118.87
2023-02-04T08:42:36.533Z,130.40
2023-02-04T08:45:03.929Z,126.70
2023-02-04T08:47:30.920Z,140.23
2023-02-04T08:49:57.855Z,147.03
2023-02-04T08:52:24.774Z,135.60
2023-02-04T08:54:51.732Z,137.87
2023-02-04T08:57:18.679Z,141.13
2023-02-04T08:59:46.042Z,139.67
2023-02-04T09:02:13.040Z,145.43
2023-02-04T09:04:40.007Z,148.57
2023-02-04T09:07:06.964Z,148.63
2023-02-04T09:09:33.940Z,141.13
2023-02-04T09:12:01.973Z,122.73
2023-02-04T09:14:29.026Z,122.67
2023-02-04T09:16:56.089Z,142.47
2023-02-04T09:19:25.592Z,155.63
2023-02-04T09:21:53.631Z,156.70
2023-02-04T09:24:23.630Z,152.73
2023-02-04T09:26:50.855Z,136.50
2023-02-04T09:29:18.067Z,137.80
2023-02-04T09:31:45.134Z,123.20
2023-02-04T09:34:12.134Z,118.77
2023-02-04T09:36:39.227Z,127.23
2023-02-04T09:39:07.562Z,120.90
2023-02-04T09:41:35.108Z,121.30
2023-02-04T09:44:04.077Z,108.97
2023-02-04T09:46:33.025Z,104.70
2023-02-04T09:49:00.469Z,96.93
2023-02-04T09:51:29.617Z,94.73
2023-02-04T09:54:07.292Z,95.03
2023-02-04T09:56:35.130Z,86.37
2023-02-04T09:59:03.733Z,88.53
2023-02-04T10:01:30.835Z,76.43
2023-02-04T10:04:01.365Z,77.03
2023-02-04T10:06:28.393Z,98.77
2023-02-04T10:08:56.646Z,74.83
2023-02-04T10:11:26.593Z,78.50
2023-02-04T10:13:56.026Z,88.73
2023-02-04T10:16:35.211Z,79.23
2023-02-04T10:19:04.923Z,69.27
2023-02-04T10:21:40.441Z,67.00
2023-02-04T10:24:15.241Z,71.10
2023-02-04T10:26:42.299Z,70.60
2023-02-04T10:29:16.686Z,60.93
2023-02-04T10:31:46.196Z,66.90
2023-02-04T10:34:36.807Z,61.90
2023-02-04T10:37:16.855Z,59.10
2023-02-04T10:39:43.968Z,56.20
2023-02-04T10:42:30.943Z,50.83
2023-02-04T10:44:58.361Z,55.60
2023-02-04T10:47:30.743Z,40.53
2023-02-04T10:50:00.438Z,48.27
2023-02-04T10:52:38.016Z,52.33
2023-02-04T10:55:07.427Z,40.80
2023-02-04T10:57:39.801Z,46.17
2023-02-04T11:00:22.379Z,46.53
2023-02-04T11:02:49.352Z,48.23
2023-02-04T11:05:22.564Z,44.83
2023-02-04T11:07:50.465Z,42.67
2023-02-04T11:10:23.532Z,44.73
2023-02-04T11:12:53.476Z,41.23
2023-02-04T11:15:41.047Z,45.40
2023-02-04T11:18:20.261Z,42.30
2023-02-04T11:20:52.134Z,37.97
2023-02-04T11:23:30.849Z,43.03
2023-02-04T11:26:11.338Z,33.83
2023-02-04T11:28:41.218Z,38.13
2023-02-04T11:31:24.600Z,37.10
2023-02-04T11:34:09.685Z,33.20
2023-02-04T11:37:01.202Z,34.77
2023-02-04T11:39:44.355Z,38.60
2023-02-04T11:42:23.838Z,34.27
2023-02-04T11:44:58.471Z,32.27
2023-02-04T11:47:27.020Z,32.90
2023-02-04T11:50:02.116Z,34.93
2023-02-04T11:52:29.121Z,32.23
2023-02-04T11:55:00.201Z,33.87
2023-02-04T11:57:28.243Z,29.77
2023-02-04T11:59:55.660Z,32.77
2023-02-04T12:02:27.938Z,32.33
2023-02-04T12:04:57.764Z,30.23
2023-02-04T12:07:30.031Z,29.50
2023-02-04T12:09:57.952Z,25.70
2023-02-04T12:12:30.096Z,22.40
2023-02-04T12:15:03.319Z,25.70
2023-02-04T12:17:30.574Z,23.73
2023-02-04T12:19:57.555Z,24.10
2023-02-04T12:22:24.622Z,30.80
2023-02-04T12:24:52.503Z,24.33
2023-02-04T12:27:19.604Z,21.90
2023-02-04T12:29:46.815Z,20.07
2023-02-04T12:32:13.935Z,21.90
2023-02-04T12:34:40.950Z,26.60
2023-02-04T12:37:07.899Z,23.03
2023-02-04T12:39:35.028Z,23.17
2023-02-04T12:42:02.031Z,19.50
2023-02-04T12:44:29.078Z,23.33
2023-02-04T12:46:56.255Z,18.27
2023-02-04T12:49:24.414Z,18.70
2023-02-04T12:51:52.561Z,18.10
2023-02-04T12:54:19.657Z,19.10
2023-02-04T12:56:46.574Z,18.73
2023-02-04T12:59:13.472Z,18.30
2023-02-04T13:01:40.399Z,16.77
2023-02-04T13:04:07.416Z,18.47
2023-02-04T13:06:34.413Z,19.87
2023-02-04T13:09:01.417Z,20.47
2023-02-04T13:11:28.434Z,17.50
2023-02-04T13:13:55.380Z,21.93
2023-02-04T13:16:24.200Z,20.20
2023-02-04T13:18:51.266Z,18.20
2023-02-04T13:21:18.257Z,19.40
2023-02-04T13:23:45.245Z,22.30
2023-02-04T13:26:12.222Z,19.70
2023-02-04T13:28:39.173Z,21.87
2023-02-04T13:31:06.322Z,18.83
2023-02-04T13:33:33.558Z,21.50
2023-02-04T13:36:00.462Z,20.03
2023-02-04T13:38:27.428Z,19.63
2023-02-04T13:40:54.358Z,24.30
2023-02-04T13:43:21.335Z,26.40
2023-02-04T13:45:49.095Z,21.53
2023-02-04T13:48:16.900Z,29.07
2023-02-04T13:50:43.877Z,24.77
2023-02-04T13:53:10.863Z,22.37
2023-02-04T13:55:37.792Z,21.53
2023-02-04T13:58:05.294Z,20.57
2023-02-04T14:00:32.589Z,63.57
2023-02-04T14:02:59.807Z,88.57
2023-02-04T14:05:26.820Z,94.80
2023-02-04T14:07:53.874Z,106.73
2023-02-04T14:10:23.069Z,112.67
2023-02-04T14:12:50.066Z,118.07
2023-02-04T14:15:17.375Z,113.47
2023-02-04T14:17:44.482Z,119.57
2023-02-04T14:20:11.916Z,118.03
2023-02-04T14:22:38.920Z,123.07
2023-02-04T14:25:06.312Z,121.67
2023-02-04T14:27:35.428Z,125.50
2023-02-04T14:30:02.569Z,127.97
2023-02-04T14:32:29.488Z,132.00
2023-02-04T14:34:56.517Z,135.37
2023-02-04T14:37:25.674Z,126.30
2023-02-04T14:39:52.612Z,131.10
2023-02-04T14:42:19.598Z,130.47
2023-02-04T14:44:46.672Z,139.87
2023-02-04T14:47:13.605Z,133.33
2023-02-04T14:49:40.549Z,131.13
2023-02-04T14:52:09.139Z,117.63
2023-02-04T14:54:37.300Z,128.60
2023-02-04T14:57:04.693Z,132.50
2023-02-04T14:59:31.655Z,135.83
2023-02-04T15:01:58.632Z,132.17
2023-02-04T15:04:25.663Z,124.10
2023-02-04T15:06:54.049Z,137.70
2023-02-04T15:09:21.128Z,132.17
2023-02-04T15:11:48.075Z,136.53
2023-02-04T15:14:15.102Z,121.87
2023-02-04T15:16:43.443Z,123.60
2023-02-04T15:19:11.051Z,121.87
2023-02-04T15:21:38.022Z,136.23
2023-02-04T15:24:05.088Z,133.70
2023-02-04T15:26:32.166Z,126.97
2023-02-04T15:28:59.399Z,135.10
2023-02-04T15:31:27.350Z,130.10
2023-02-04T15:33:54.619Z,138.60
2023-02-04T15:36:21.756Z,132.57
2023-02-04T15:38:49.030Z,132.80
2023-02-04T15:41:16.027Z,128.57
2023-02-04T15:43:43.085Z,126.63
2023-02-04T15:46:10.232Z,128.33
2023-02-04T15:48:37.215Z,126.80
2023-02-04T15:51:04.322Z,127.17
2023-02-04T15:53:31.370Z,129.20
2023-02-04T15:55:58.341Z,133.30
2023-02-04T15:58:25.346Z,136.40
2023-02-04T16:00:52.566Z,125.60
2023-02-04T16:03:19.538Z,132.77
2023-02-04T16:05:46.603Z,123.37
2023-02-04T16:08:13.600Z,137.17
2023-02-04T16:10:40.637Z,122.07
2023-02-04T16:13:07.800Z,134.77
2023-02-04T16:15:35.044Z,140.33
2023-02-04T16:18:02.229Z,131.57
2023-02-04T16:20:29.304Z,137.60
2023-02-04T16:22:56.241Z,146.60
2023-02-04T16:25:23.928Z,132.17
2023-02-04T16:27:50.978Z,132.53
2023-02-04T16:30:18.092Z,137.23
2023-02-04T16:32:45.014Z,139.43
2023-02-04T16:35:12.048Z,148.50
2023-02-04T16:37:39.019Z,139.60
2023-02-04T16:40:06.542Z,147.63
2023-02-04T16:42:33.579Z,152.47
2023-02-04T16:45:00.586Z,134.03
2023-02-04T16:47:27.571Z,140.30
2023-02-04T16:49:59.106Z,141.97
2023-02-04T16:52:26.414Z,151.23
2023-02-04T16:54:53.331Z,147.97
2023-02-04T16:57:20.360Z,146.57
2023-02-04T16:59:47.471Z,142.47
2023-02-04T17:02:14.387Z,143.53
2023-02-04T17:04:41.448Z,145.10
2023-02-04T17:07:08.509Z,154.93
2023-02-04T17:09:35.556Z,162.00
2023-02-04T17:12:02.549Z,168.67
2023-02-04T17:14:29.534Z,152.83
2023-02-04T17:16:56.518Z,159.53
2023-02-04T17:19:24.339Z,153.50
2023-02-04T17:21:51.280Z,161.77
2023-02-04T17:24:18.340Z,167.83
2023-02-04T17:26:45.291Z,159.30
2023-02-04T17:29:20.759Z,167.17
2023-02-04T17:31:47.887Z,167.43
2023-02-04T17:34:14.924Z,178.33
2023-02-04T17:36:41.896Z,177.40
2023-02-04T17:39:08.849Z,172.50
2023-02-04T17:41:35.865Z,176.37
2023-02-04T17:44:03.585Z,180.83
2023-02-04T17:46:31.433Z,170.23
2023-02-04T17:48:58.905Z,168.10
2023-02-04T17:51:26.118Z,163.43
2023-02-04T17:53:53.078Z,173.13
2023-02-04T17:56:21.446Z,166.17
2023-02-04T17:58:49.541Z,160.73
2023-02-04T18:01:18.918Z,160.27
2023-02-04T18:03:46.560Z,158.00
2023-02-04T18:06:27.191Z,154.17
2023-02-04T18:09:01.462Z,152.30
2023-02-04T18:11:32.937Z,150.03
2023-02-04T18:14:05.463Z,143.20
2023-02-04T18:16:34.676Z,143.87
2023-02-04T18:19:19.220Z,136.10
2023-02-04T18:21:47.104Z,132.80
2023-02-04T18:24:27.225Z,130.37
2023-02-04T18:26:56.455Z,128.33
2023-02-04T18:29:33.210Z,127.77
2023-02-04T18:32:22.492Z,125.10
2023-02-04T18:34:51.512Z,128.43
2023-02-04T18:37:33.303Z,115.03
2023-02-04T18:40:09.265Z,125.30
2023-02-04T18:42:42.403Z,108.20
2023-02-04T18:45:30.433Z,112.90
2023-02-04T18:47:59.858Z,108.60
2023-02-04T18:50:32.862Z,107.17
2023-02-04T18:53:15.368Z,108.03
2023-02-04T18:55:50.209Z,101.83
2023-02-04T18:58:17.272Z,89.20
2023-02-04T19:00:50.483Z,97.30
2023-02-04T19:03:25.369Z,82.47
2023-02-04T19:05:53.806Z,83.73
2023-02-04T19:08:44.758Z,79.20
2023-02-04T19:11:35.463Z,77.27
2023-02-04T19:14:12.190Z,75.77
2023-02-04T19:16:40.958Z,80.30
2023-02-04T19:19:32.380Z,66.03
2023-02-04T19:21:59.674Z,66.57
2023-02-04T19:24:33.125Z,75.90
2023-02-04T19:27:18.078Z,73.67
2023-02-04T19:29:45.099Z,70.23
2023-02-04T19:32:23.480Z,66.97
2023-02-04T19:34:52.393Z,69.90
2023-02-04T19:37:42.401Z,65.67
2023-02-04T19:40:25.264Z,68.03
2023-02-04T19:43:18.969Z,58.73
2023-02-04T19:45:46.679Z,65.10
2023-02-04T19:48:34.704Z,69.90
2023-02-04T19:51:25.559Z,55.33
2023-02-04T19:53:59.111Z,49.87
2023-02-04T19:56:38.541Z,57.10
2023-02-04T19:59:23.526Z,49.97
2023-02-04T20:02:18.065Z,51.97
2023-02-04T20:04:49.773Z,44.80
2023-02-04T20:07:23.830Z,45.27
2023-02-04T20:10:06.258Z,42.57
2023-02-04T20:12:33.720Z,41.87
2023-02-04T20:15:11.386Z,41.27
2023-02-04T20:17:40.909Z,43.83
2023-02-04T20:20:24.370Z,40.90
2023-02-04T20:22:52.710Z,33.33
2023-02-04T20:25:19.765Z,37.43
2023-02-04T20:27:52.424Z,39.57
2023-02-04T20:30:28.079Z,25.77
2023-02-04T20:32:57.094Z,31.73
2023-02-04T20:35:31.940Z,31.57
2023-02-04T20:38:07.819Z,22.40
2023-02-04T20:40:37.873Z,27.43
2023-02-04T20:43:25.034Z,24.23
2023-02-04T20:46:00.276Z,19.20
2023-02-04T20:48:36.720Z,18.93
2023-02-04T20:51:05.366Z,19.40
2023-02-04T20:53:57.783Z,19.73
2023-02-04T20:56:29.420Z,18.87
2023-02-04T20:59:17.757Z,21.13
2023-02-04T21:01:50.226Z,22.40
2023-02-04T21:04:23.318Z,11.37
2023-02-04T21:06:52.694Z,22.33
2023-02-04T21:09:28.024Z,18.13
2023-02-04T21:11:56.554Z,14.47
2023-02-04T21:14:24.982Z,16.03
2023-02-04T21:16:53.921Z,18.13
2023-02-04T21:19:21.915Z,15.53
2023-02-04T21:21:48.944Z,16.33
2023-02-04T21:24:15.920Z,11.57
2023-02-04T21:26:42.875Z,10.10
2023-02-04T21:29:11.391Z,14.83
2023-02-04T21:31:38.566Z,8.77
2023-02-04T21:34:06.666Z,12.43
2023-02-04T21:36:34.043Z,9.83
2023-02-04T21:39:00.979Z,6.53
2023-02-04T21:41:28.024Z,11.77
2023-02-04T21:43:54.962Z,5.57
2023-02-04T21:46:22.127Z,11.00
2023-02-04T21:48:49.159Z,13.87
2023-02-04T21:51:16.389Z,16.43
2023-02-04T21:53:44.424Z,8.60
2023-02-04T21:56:11.824Z,10.03
2023-02-04T21:58:38.896Z,8.13
2023-02-04T22:01:06.175Z,15.33
2023-02-04T22:03:33.354Z,5.63
2023-02-04T22:06:00.606Z,7.67
2023-02-04T22:08:27.588Z,11.17
2023-02-04T22:10:54.927Z,6.33
2023-02-04T22:13:40.215Z,10.03
2023-02-04T22:16:07.295Z,7.47
2023-02-04T22:18:34.247Z,7.70
2023-02-04T22:21:01.209Z,13.10
2023-02-04T22:23:28.155Z,7.17
2023-02-04T22:25:55.035Z,6.07
2023-02-04T22:28:21.994Z,9.37
2023-02-04T22:30:49.164Z,10.50
2023-02-04T22:33:16.240Z,4.97
2023-02-04T22:35:43.312Z,10.23
2023-02-04T22:38:10.372Z,9.80
2023-02-04T22:40:37.651Z,8.67
2023-02-04T22:43:04.837Z,6.47
2023-02-04T22:45:32.103Z,7.77
2023-02-04T22:47:59.302Z,12.17
2023-02-04T22:50:26.316Z,11.73
2023-02-04T22:52:53.293Z,13.47
2023-02-04T22:55:20.366Z,7.27
2023-02-04T22:57:47.347Z,7.40
2023-02-04T23:00:15.314Z,7.33
2023-02-04T23:02:42.298Z,10.87
2023-02-04T23:05:09.441Z,4.70
2023-02-04T23:07:36.991Z,7.30
2023-02-04T23:10:04.307Z,5.13
2023-02-04T23:12:31.301Z,15.63
2023-02-04T23:14:58.278Z,10.67
2023-02-04T23:17:25.307Z,13.27
2023-02-04T23:19:52.338Z,10.63
2023-02-04T23:22:19.310Z,7.90
2023-02-04T23:24:46.347Z,12.10
2023-02-04T23:27:13.475Z,7.90
2023-02-04T23:29:40.887Z,12.17
2023-02-04T23:32:08.305Z,9.27
2023-02-04T23:34:35.990Z,13.43
2023-02-04T23:37:03.002Z,10.47
2023-02-04T23:39:30.811Z,14.93
2023-02-04T23:41:57.850Z,8.13
2023-02-04T23:44:24.919Z,11.17
2023-02-04T23:46:51.953Z,6.03
2023-02-04T23:49:18.896Z,9.10
2023-02-04T23:51:46.251Z,12.73
2023-02-04T23:54:13.320Z,12.13
2023-02-04T23:56:40.434Z,10.43
2023-02-04T23:59:08.326Z,8.10
